sensor_id;sensor_type;location;lat;lon;timestamp;P1;durP1;ratioP1;P2;durP2;ratioP2
72053;SDS011;59918;51.280;7.950;2022-11-18T00:01:03;9.57;;;4.10;;
72053;SDS011;59918;51.280;7.950;2022-11-18T00:03:31;12.05;;;5.25;;
72053;SDS011;59918;51.280;7.950;2022-11-18T00:05:56;12.60;;;4.30;;
72053;SDS011;59918;51.280;7.950;2022-11-18T00:08:22;14.10;;;4.85;;
72053;SDS011;59918;51.280;7.950;2022-11-18T00:10:48;10.15;;;4.20;;
72053;SDS011;59918;51.280;7.950;2022-11-18T00:13:14;6.15;;;3.47;;
72053;SDS011;59918;51.280;7.950;2022-11-18T00:15:40;9.23;;;3.55;;
72053;SDS011;59918;51.280;7.950;2022-11-18T00:18:07;10.77;;;3.85;;
72053;SDS011;59918;51.280;7.950;2022-11-18T00:20:33;4.97;;;3.17;;
72053;SDS011;59918;51.280;7.950;2022-11-18T00:23:01;9.68;;;3.65;;
72053;SDS011;59918;51.280;7.950;2022-11-18T00:25:26;11.73;;;5.18;;
72053;SDS011;59918;51.280;7.950;2022-11-18T00:27:52;16.15;;;5.43;;
72053;SDS011;59918;51.280;7.950;2022-11-18T00:30:18;7.05;;;3.60;;
72053;SDS011;59918;51.280;7.950;2022-11-18T00:32:43;10.18;;;4.00;;
72053;SDS011;59918;51.280;7.950;2022-11-18T00:35:08;9.43;;;3.70;;
72053;SDS011;59918;51.280;7.950;2022-11-18T00:37:34;7.97;;;4.28;;
72053;SDS011;59918;51.280;7.950;2022-11-18T00:40:01;13.73;;;6.63;;
72053;SDS011;59918;51.280;7.950;2022-11-18T00:42:29;9.18;;;4.30;;
72053;SDS011;59918;51.280;7.950;2022-11-18T00:44:54;8.77;;;4.07;;
72053;SDS011;59918;51.280;7.950;2022-11-18T00:47:19;5.60;;;3.88;;
72053;SDS011;59918;51.280;7.950;2022-11-18T00:49:47;9.88;;;4.40;;
72053;SDS011;59918;51.280;7.950;2022-11-18T00:52:12;12.70;;;4.95;;
72053;SDS011;59918;51.280;7.950;2022-11-18T00:54:37;8.35;;;4.65;;
72053;SDS011;59918;51.280;7.950;2022-11-18T00:57:02;10.10;;;5.45;;
72053;SDS011;59918;51.280;7.950;2022-11-18T00:59:28;11.32;;;5.35;;
72053;SDS011;59918;51.280;7.950;2022-11-18T01:01:55;13.68;;;6.15;;
72053;SDS011;59918;51.280;7.950;2022-11-18T01:04:23;15.10;;;4.97;;
72053;SDS011;59918;51.280;7.950;2022-11-18T01:06:51;16.70;;;4.97;;
72053;SDS011;59918;51.280;7.950;2022-11-18T01:09:16;10.30;;;3.80;;
72053;SDS011;59918;51.280;7.950;2022-11-18T01:11:41;9.35;;;4.70;;
72053;SDS011;59918;51.280;7.950;2022-11-18T01:14:06;8.82;;;4.20;;
72053;SDS011;59918;51.280;7.950;2022-11-18T01:16:32;8.57;;;4.45;;
72053;SDS011;59918;51.280;7.950;2022-11-18T01:18:59;9.57;;;3.90;;
72053;SDS011;59918;51.280;7.950;2022-11-18T01:21:25;6.78;;;3.25;;
72053;SDS011;59918;51.280;7.950;2022-11-18T01:23:52;10.07;;;3.30;;
72053;SDS011;59918;51.280;7.950;2022-11-18T01:26:18;10.88;;;3.28;;
72053;SDS011;59918;51.280;7.950;2022-11-18T01:28:43;7.78;;;4.07;;
72053;SDS011;59918;51.280;7.950;2022-11-18T01:31:12;11.32;;;3.72;;
72053;SDS011;59918;51.280;7.950;2022-11-18T01:33:39;8.35;;;3.47;;
72053;SDS011;59918;51.280;7.950;2022-11-18T01:36:12;17.33;;;5.97;;
72053;SDS011;59918;51.280;7.950;2022-11-18T01:38:39;10.88;;;3.45;;
72053;SDS011;59918;51.280;7.950;2022-11-18T01:41:04;11.80;;;4.03;;
72053;SDS011;59918;51.280;7.950;2022-11-18T01:46:16;13.25;;;5.43;;
72053;SDS011;59918;51.280;7.950;2022-11-18T01:48:41;25.77;;;5.95;;
72053;SDS011;59918;51.280;7.950;2022-11-18T01:51:08;22.70;;;9.43;;
72053;SDS011;59918;51.280;7.950;2022-11-18T01:53:41;9.68;;;4.18;;
72053;SDS011;59918;51.280;7.950;2022-11-18T01:56:15;11.10;;;3.63;;
72053;SDS011;59918;51.280;7.950;2022-11-18T01:58:53;10.00;;;4.35;;
72053;SDS011;59918;51.280;7.950;2022-11-18T02:01:40;10.98;;;4.13;;
72053;SDS011;59918;51.280;7.950;2022-11-18T02:04:06;10.80;;;4.60;;
72053;SDS011;59918;51.280;7.950;2022-11-18T02:06:32;11.75;;;5.32;;
72053;SDS011;59918;51.280;7.950;2022-11-18T02:09:01;11.23;;;4.70;;
72053;SDS011;59918;51.280;7.950;2022-11-18T02:11:26;11.52;;;4.95;;
72053;SDS011;59918;51.280;7.950;2022-11-18T02:13:52;9.88;;;4.55;;
72053;SDS011;59918;51.280;7.950;2022-11-18T02:16:19;7.03;;;4.32;;
72053;SDS011;59918;51.280;7.950;2022-11-18T02:19:00;12.13;;;4.63;;
72053;SDS011;59918;51.280;7.950;2022-11-18T02:24:25;8.85;;;3.10;;
72053;SDS011;59918;51.280;7.950;2022-11-18T02:32:32;12.95;;;3.92;;
72053;SDS011;59918;51.280;7.950;2022-11-18T02:35:24;10.75;;;4.97;;
72053;SDS011;59918;51.280;7.950;2022-11-18T02:37:56;8.13;;;3.72;;
72053;SDS011;59918;51.280;7.950;2022-11-18T02:40:28;7.00;;;3.83;;
72053;SDS011;59918;51.280;7.950;2022-11-18T02:43:01;3.85;;;3.08;;
72053;SDS011;59918;51.280;7.950;2022-11-18T02:45:32;6.95;;;3.75;;
72053;SDS011;59918;51.280;7.950;2022-11-18T02:48:04;11.85;;;4.70;;
72053;SDS011;59918;51.280;7.950;2022-11-18T02:50:32;5.30;;;2.97;;
72053;SDS011;59918;51.280;7.950;2022-11-18T02:53:00;12.85;;;3.72;;
72053;SDS011;59918;51.280;7.950;2022-11-18T02:55:29;7.50;;;3.85;;
72053;SDS011;59918;51.280;7.950;2022-11-18T02:57:56;6.70;;;3.08;;
72053;SDS011;59918;51.280;7.950;2022-11-18T03:00:25;4.88;;;3.45;;
72053;SDS011;59918;51.280;7.950;2022-11-18T03:02:50;6.32;;;3.53;;
72053;SDS011;59918;51.280;7.950;2022-11-18T03:05:24;8.82;;;4.10;;
72053;SDS011;59918;51.280;7.950;2022-11-18T03:07:57;7.85;;;4.25;;
72053;SDS011;59918;51.280;7.950;2022-11-18T03:10:31;8.85;;;4.28;;
72053;SDS011;59918;51.280;7.950;2022-11-18T03:13:10;8.57;;;5.55;;
72053;SDS011;59918;51.280;7.950;2022-11-18T03:15:54;10.45;;;3.40;;
72053;SDS011;59918;51.280;7.950;2022-11-18T03:21:08;14.60;;;4.20;;
72053;SDS011;59918;51.280;7.950;2022-11-18T03:26:24;9.07;;;4.38;;
72053;SDS011;59918;51.280;7.950;2022-11-18T03:29:07;17.02;;;5.13;;
72053;SDS011;59918;51.280;7.950;2022-11-18T03:31:48;8.68;;;4.53;;
72053;SDS011;59918;51.280;7.950;2022-11-18T03:34:30;10.20;;;4.10;;
72053;SDS011;59918;51.280;7.950;2022-11-18T03:37:01;48.38;;;6.30;;
72053;SDS011;59918;51.280;7.950;2022-11-18T03:39:32;11.82;;;4.20;;
72053;SDS011;59918;51.280;7.950;2022-11-18T03:42:08;5.53;;;3.97;;
72053;SDS011;59918;51.280;7.950;2022-11-18T03:44:38;6.55;;;3.72;;
72053;SDS011;59918;51.280;7.950;2022-11-18T03:47:14;10.43;;;4.45;;
72053;SDS011;59918;51.280;7.950;2022-11-18T03:49:44;7.97;;;3.97;;
72053;SDS011;59918;51.280;7.950;2022-11-18T03:52:18;6.35;;;4.03;;
72053;SDS011;59918;51.280;7.950;2022-11-18T03:54:52;17.95;;;5.28;;
72053;SDS011;59918;51.280;7.950;2022-11-18T03:57:42;10.95;;;3.88;;
72053;SDS011;59918;51.280;7.950;2022-11-18T04:00:30;7.28;;;3.70;;
72053;SDS011;59918;51.280;7.950;2022-11-18T04:03:00;8.73;;;3.95;;
72053;SDS011;59918;51.280;7.950;2022-11-18T04:05:28;5.30;;;3.13;;
72053;SDS011;59918;51.280;7.950;2022-11-18T04:07:59;10.80;;;3.78;;
72053;SDS011;59918;51.280;7.950;2022-11-18T04:10:32;11.70;;;4.00;;
72053;SDS011;59918;51.280;7.950;2022-11-18T04:13:03;10.60;;;4.18;;
72053;SDS011;59918;51.280;7.950;2022-11-18T04:15:35;9.55;;;3.63;;
72053;SDS011;59918;51.280;7.950;2022-11-18T04:18:01;8.55;;;4.13;;
72053;SDS011;59918;51.280;7.950;2022-11-18T04:20:27;9.05;;;3.45;;
72053;SDS011;59918;51.280;7.950;2022-11-18T04:22:52;6.43;;;3.55;;
72053;SDS011;59918;51.280;7.950;2022-11-18T04:25:17;15.55;;;3.58;;
72053;SDS011;59918;51.280;7.950;2022-11-18T04:27:45;8.95;;;3.95;;
72053;SDS011;59918;51.280;7.950;2022-11-18T04:30:10;6.35;;;3.65;;
72053;SDS011;59918;51.280;7.950;2022-11-18T04:32:36;7.53;;;2.97;;
72053;SDS011;59918;51.280;7.950;2022-11-18T04:35:01;8.43;;;3.90;;
72053;SDS011;59918;51.280;7.950;2022-11-18T04:37:26;7.45;;;3.90;;
72053;SDS011;59918;51.280;7.950;2022-11-18T04:39:52;13.68;;;5.18;;
72053;SDS011;59918;51.280;7.950;2022-11-18T04:42:17;12.65;;;5.20;;
72053;SDS011;59918;51.280;7.950;2022-11-18T04:44:42;11.93;;;4.80;;
72053;SDS011;59918;51.280;7.950;2022-11-18T04:47:07;9.27;;;4.88;;
72053;SDS011;59918;51.280;7.950;2022-11-18T04:49:34;8.07;;;4.38;;
72053;SDS011;59918;51.280;7.950;2022-11-18T04:52:00;11.50;;;4.82;;
72053;SDS011;59918;51.280;7.950;2022-11-18T04:54:26;12.20;;;4.40;;
72053;SDS011;59918;51.280;7.950;2022-11-18T04:56:51;12.55;;;5.10;;
72053;SDS011;59918;51.280;7.950;2022-11-18T04:59:18;10.90;;;4.72;;
72053;SDS011;59918;51.280;7.950;2022-11-18T05:01:46;9.27;;;4.68;;
72053;SDS011;59918;51.280;7.950;2022-11-18T05:04:13;8.90;;;4.07;;
72053;SDS011;59918;51.280;7.950;2022-11-18T05:06:42;7.35;;;4.15;;
72053;SDS011;59918;51.280;7.950;2022-11-18T05:09:08;7.03;;;3.58;;
72053;SDS011;59918;51.280;7.950;2022-11-18T05:11:36;7.65;;;4.10;;
72053;SDS011;59918;51.280;7.950;2022-11-18T05:14:01;8.00;;;3.65;;
72053;SDS011;59918;51.280;7.950;2022-11-18T05:16:26;7.13;;;3.92;;
72053;SDS011;59918;51.280;7.950;2022-11-18T05:18:52;8.38;;;4.10;;
72053;SDS011;59918;51.280;7.950;2022-11-18T05:21:17;10.43;;;3.85;;
72053;SDS011;59918;51.280;7.950;2022-11-18T05:23:44;8.20;;;3.67;;
72053;SDS011;59918;51.280;7.950;2022-11-18T05:26:10;11.10;;;3.90;;
72053;SDS011;59918;51.280;7.950;2022-11-18T05:28:35;8.93;;;4.05;;
72053;SDS011;59918;51.280;7.950;2022-11-18T05:31:05;7.38;;;3.58;;
72053;SDS011;59918;51.280;7.950;2022-11-18T05:33:33;6.50;;;3.85;;
72053;SDS011;59918;51.280;7.950;2022-11-18T05:36:03;7.13;;;4.90;;
72053;SDS011;59918;51.280;7.950;2022-11-18T05:38:30;6.03;;;4.28;;
72053;SDS011;59918;51.280;7.950;2022-11-18T05:40:56;6.63;;;4.47;;
72053;SDS011;59918;51.280;7.950;2022-11-18T05:43:21;5.63;;;4.20;;
72053;SDS011;59918;51.280;7.950;2022-11-18T05:45:46;7.72;;;4.03;;
72053;SDS011;59918;51.280;7.950;2022-11-18T05:48:17;8.13;;;4.57;;
72053;SDS011;59918;51.280;7.950;2022-11-18T05:50:45;8.15;;;3.88;;
72053;SDS011;59918;51.280;7.950;2022-11-18T05:53:18;6.72;;;4.72;;
72053;SDS011;59918;51.280;7.950;2022-11-18T05:55:50;7.75;;;4.30;;
72053;SDS011;59918;51.280;7.950;2022-11-18T05:58:35;11.05;;;4.50;;
72053;SDS011;59918;51.280;7.950;2022-11-18T06:01:02;8.25;;;4.57;;
72053;SDS011;59918;51.280;7.950;2022-11-18T06:03:30;8.32;;;4.18;;
72053;SDS011;59918;51.280;7.950;2022-11-18T06:05:57;11.35;;;4.47;;
72053;SDS011;59918;51.280;7.950;2022-11-18T06:08:25;7.95;;;4.00;;
72053;SDS011;59918;51.280;7.950;2022-11-18T06:10:55;7.68;;;3.85;;
72053;SDS011;59918;51.280;7.950;2022-11-18T06:13:22;6.55;;;3.65;;
72053;SDS011;59918;51.280;7.950;2022-11-18T06:15:51;6.03;;;4.60;;
72053;SDS011;59918;51.280;7.950;2022-11-18T06:20:51;10.15;;;4.10;;
72053;SDS011;59918;51.280;7.950;2022-11-18T06:23:19;9.90;;;3.88;;
72053;SDS011;59918;51.280;7.950;2022-11-18T06:25:44;6.45;;;4.22;;
72053;SDS011;59918;51.280;7.950;2022-11-18T06:28:13;7.13;;;3.55;;
72053;SDS011;59918;51.280;7.950;2022-11-18T06:30:40;8.43;;;3.88;;
72053;SDS011;59918;51.280;7.950;2022-11-18T06:33:05;5.15;;;3.83;;
72053;SDS011;59918;51.280;7.950;2022-11-18T06:35:33;6.93;;;4.00;;
72053;SDS011;59918;51.280;7.950;2022-11-18T06:37:58;8.32;;;4.30;;
72053;SDS011;59918;51.280;7.950;2022-11-18T06:40:24;6.60;;;4.43;;
72053;SDS011;59918;51.280;7.950;2022-11-18T06:42:52;7.75;;;3.97;;
72053;SDS011;59918;51.280;7.950;2022-11-18T06:45:17;6.32;;;4.15;;
72053;SDS011;59918;51.280;7.950;2022-11-18T06:47:42;4.50;;;3.67;;
72053;SDS011;59918;51.280;7.950;2022-11-18T06:50:08;6.07;;;3.67;;
72053;SDS011;59918;51.280;7.950;2022-11-18T06:52:33;6.93;;;3.65;;
72053;SDS011;59918;51.280;7.950;2022-11-18T06:54:58;5.22;;;3.92;;
72053;SDS011;59918;51.280;7.950;2022-11-18T06:57:26;5.82;;;3.60;;
72053;SDS011;59918;51.280;7.950;2022-11-18T06:59:51;7.53;;;3.60;;
72053;SDS011;59918;51.280;7.950;2022-11-18T07:02:16;8.38;;;3.92;;
72053;SDS011;59918;51.280;7.950;2022-11-18T07:04:44;9.32;;;4.30;;
72053;SDS011;59918;51.280;7.950;2022-11-18T07:07:09;6.03;;;4.05;;
72053;SDS011;59918;51.280;7.950;2022-11-18T07:09:37;4.30;;;3.90;;
72053;SDS011;59918;51.280;7.950;2022-11-18T07:12:02;6.22;;;4.20;;
72053;SDS011;59918;51.280;7.950;2022-11-18T07:14:30;8.25;;;4.43;;
72053;SDS011;59918;51.280;7.950;2022-11-18T07:16:56;6.95;;;5.03;;
72053;SDS011;59918;51.280;7.950;2022-11-18T07:19:21;8.20;;;4.28;;
72053;SDS011;59918;51.280;7.950;2022-11-18T07:21:46;5.95;;;4.13;;
72053;SDS011;59918;51.280;7.950;2022-11-18T07:24:13;6.75;;;4.55;;
72053;SDS011;59918;51.280;7.950;2022-11-18T07:26:39;12.75;;;5.03;;
72053;SDS011;59918;51.280;7.950;2022-11-18T07:29:05;8.68;;;4.00;;
72053;SDS011;59918;51.280;7.950;2022-11-18T07:31:30;8.98;;;3.97;;
72053;SDS011;59918;51.280;7.950;2022-11-18T07:33:59;5.53;;;3.65;;
72053;SDS011;59918;51.280;7.950;2022-11-18T07:36:26;5.28;;;3.90;;
72053;SDS011;59918;51.280;7.950;2022-11-18T07:38:55;5.90;;;3.63;;
72053;SDS011;59918;51.280;7.950;2022-11-18T07:41:24;3.60;;;3.10;;
72053;SDS011;59918;51.280;7.950;2022-11-18T07:43:52;4.53;;;2.90;;
72053;SDS011;59918;51.280;7.950;2022-11-18T07:46:20;6.13;;;3.13;;
72053;SDS011;59918;51.280;7.950;2022-11-18T07:48:47;2.63;;;2.25;;
72053;SDS011;59918;51.280;7.950;2022-11-18T07:51:15;4.70;;;2.08;;
72053;SDS011;59918;51.280;7.950;2022-11-18T07:53:41;3.17;;;2.13;;
72053;SDS011;59918;51.280;7.950;2022-11-18T07:56:07;3.30;;;2.25;;
72053;SDS011;59918;51.280;7.950;2022-11-18T07:58:33;2.40;;;1.90;;
72053;SDS011;59918;51.280;7.950;2022-11-18T08:01:05;5.47;;;2.63;;
72053;SDS011;59918;51.280;7.950;2022-11-18T08:03:43;3.85;;;1.92;;
72053;SDS011;59918;51.280;7.950;2022-11-18T08:06:09;2.53;;;1.85;;
72053;SDS011;59918;51.280;7.950;2022-11-18T08:08:36;1.98;;;1.48;;
72053;SDS011;59918;51.280;7.950;2022-11-18T08:11:03;1.42;;;1.30;;
72053;SDS011;59918;51.280;7.950;2022-11-18T08:13:29;1.90;;;1.60;;
72053;SDS011;59918;51.280;7.950;2022-11-18T08:15:55;1.65;;;1.55;;
72053;SDS011;59918;51.280;7.950;2022-11-18T08:18:23;4.28;;;1.60;;
72053;SDS011;59918;51.280;7.950;2022-11-18T08:20:48;2.95;;;1.98;;
72053;SDS011;59918;51.280;7.950;2022-11-18T08:23:14;2.15;;;1.42;;
72053;SDS011;59918;51.280;7.950;2022-11-18T08:25:43;2.17;;;1.52;;
72053;SDS011;59918;51.280;7.950;2022-11-18T08:28:10;2.30;;;1.48;;
72053;SDS011;59918;51.280;7.950;2022-11-18T08:30:36;2.15;;;1.80;;
72053;SDS011;59918;51.280;7.950;2022-11-18T08:33:01;3.17;;;1.65;;
72053;SDS011;59918;51.280;7.950;2022-11-18T08:35:27;2.78;;;1.80;;
72053;SDS011;59918;51.280;7.950;2022-11-18T08:37:56;4.10;;;1.98;;
72053;SDS011;59918;51.280;7.950;2022-11-18T08:40:22;3.28;;;2.22;;
72053;SDS011;59918;51.280;7.950;2022-11-18T08:42:47;2.65;;;2.20;;
72053;SDS011;59918;51.280;7.950;2022-11-18T08:45:12;4.22;;;2.08;;
72053;SDS011;59918;51.280;7.950;2022-11-18T08:47:38;3.10;;;2.13;;
72053;SDS011;59918;51.280;7.950;2022-11-18T08:50:04;3.25;;;2.33;;
72053;SDS011;59918;51.280;7.950;2022-11-18T08:52:31;2.58;;;2.00;;
72053;SDS011;59918;51.280;7.950;2022-11-18T08:54:56;2.70;;;1.50;;
72053;SDS011;59918;51.280;7.950;2022-11-18T08:57:22;6.85;;;2.28;;
72053;SDS011;59918;51.280;7.950;2022-11-18T08:59:47;1.67;;;1.52;;
72053;SDS011;59918;51.280;7.950;2022-11-18T09:02:12;2.30;;;2.10;;
72053;SDS011;59918;51.280;7.950;2022-11-18T09:04:41;2.95;;;2.17;;
72053;SDS011;59918;51.280;7.950;2022-11-18T09:07:06;4.82;;;2.70;;
72053;SDS011;59918;51.280;7.950;2022-11-18T09:09:32;2.75;;;2.08;;
72053;SDS011;59918;51.280;7.950;2022-11-18T09:11:57;6.22;;;2.90;;
72053;SDS011;59918;51.280;7.950;2022-11-18T09:14:22;5.82;;;3.60;;
72053;SDS011;59918;51.280;7.950;2022-11-18T09:16:48;5.60;;;4.10;;
72053;SDS011;59918;51.280;7.950;2022-11-18T09:19:13;9.70;;;4.63;;
72053;SDS011;59918;51.280;7.950;2022-11-18T09:21:41;5.47;;;4.38;;
72053;SDS011;59918;51.280;7.950;2022-11-18T09:24:07;6.20;;;4.10;;
72053;SDS011;59918;51.280;7.950;2022-11-18T09:26:33;7.15;;;4.60;;
72053;SDS011;59918;51.280;7.950;2022-11-18T09:28:59;7.85;;;4.30;;
72053;SDS011;59918;51.280;7.950;2022-11-18T09:31:24;5.18;;;4.28;;
72053;SDS011;59918;51.280;7.950;2022-11-18T09:33:52;11.40;;;4.80;;
72053;SDS011;59918;51.280;7.950;2022-11-18T09:38:43;7.03;;;4.75;;
72053;SDS011;59918;51.280;7.950;2022-11-18T09:46:54;11.05;;;5.25;;
72053;SDS011;59918;51.280;7.950;2022-11-18T09:49:26;7.43;;;4.50;;
72053;SDS011;59918;51.280;7.950;2022-11-18T09:51:54;9.68;;;5.50;;
72053;SDS011;59918;51.280;7.950;2022-11-18T09:54:31;6.72;;;5.35;;
72053;SDS011;59918;51.280;7.950;2022-11-18T09:57:02;6.40;;;5.25;;
72053;SDS011;59918;51.280;7.950;2022-11-18T09:59:43;7.95;;;4.82;;
72053;SDS011;59918;51.280;7.950;2022-11-18T10:04:55;10.40;;;4.40;;
72053;SDS011;59918;51.280;7.950;2022-11-18T10:07:29;9.60;;;5.77;;
72053;SDS011;59918;51.280;7.950;2022-11-18T10:10:00;7.40;;;4.88;;
72053;SDS011;59918;51.280;7.950;2022-11-18T10:12:40;9.68;;;5.50;;
72053;SDS011;59918;51.280;7.950;2022-11-18T10:15:16;9.15;;;5.13;;
72053;SDS011;59918;51.280;7.950;2022-11-18T10:23:34;5.15;;;4.65;;
72053;SDS011;59918;51.280;7.950;2022-11-18T10:28:39;7.80;;;6.00;;
72053;SDS011;59918;51.280;7.950;2022-11-18T10:31:05;8.73;;;6.10;;
72053;SDS011;59918;51.280;7.950;2022-11-18T10:33:33;12.18;;;6.00;;
72053;SDS011;59918;51.280;7.950;2022-11-18T10:38:54;6.82;;;5.60;;
72053;SDS011;59918;51.280;7.950;2022-11-18T10:41:30;6.20;;;5.47;;
72053;SDS011;59918;51.280;7.950;2022-11-18T10:44:03;7.75;;;5.03;;
72053;SDS011;59918;51.280;7.950;2022-11-18T10:51:47;10.77;;;7.20;;
72053;SDS011;59918;51.280;7.950;2022-11-18T10:54:30;9.63;;;7.43;;
72053;SDS011;59918;51.280;7.950;2022-11-18T10:57:04;11.68;;;6.60;;
72053;SDS011;59918;51.280;7.950;2022-11-18T11:04:56;6.28;;;5.78;;
72053;SDS011;59918;51.280;7.950;2022-11-18T11:07:25;7.20;;;5.68;;
72053;SDS011;59918;51.280;7.950;2022-11-18T11:12:26;8.98;;;6.55;;
72053;SDS011;59918;51.280;7.950;2022-11-18T11:14:55;6.63;;;5.93;;
72053;SDS011;59918;51.280;7.950;2022-11-18T11:22:25;5.88;;;5.38;;
72053;SDS011;59918;51.280;7.950;2022-11-18T11:24:52;5.93;;;5.30;;
72053;SDS011;59918;51.280;7.950;2022-11-18T11:30:21;5.68;;;4.68;;
72053;SDS011;59918;51.280;7.950;2022-11-18T11:35:21;6.63;;;5.60;;
72053;SDS011;59918;51.280;7.950;2022-11-18T11:37:54;8.10;;;6.03;;
72053;SDS011;59918;51.280;7.950;2022-11-18T11:43:07;7.25;;;6.18;;
72053;SDS011;59918;51.280;7.950;2022-11-18T11:45:57;7.85;;;6.25;;
72053;SDS011;59918;51.280;7.950;2022-11-18T11:56:46;7.80;;;5.33;;
72053;SDS011;59918;51.280;7.950;2022-11-18T11:59:22;9.05;;;5.82;;
72053;SDS011;59918;51.280;7.950;2022-11-18T12:04:54;6.38;;;5.38;;
72053;SDS011;59918;51.280;7.950;2022-11-18T12:07:26;7.68;;;5.40;;
72053;SDS011;59918;51.280;7.950;2022-11-18T12:18:25;9.07;;;5.97;;
72053;SDS011;59918;51.280;7.950;2022-11-18T12:20:53;7.00;;;5.43;;
72053;SDS011;59918;51.280;7.950;2022-11-18T12:23:22;14.23;;;5.78;;
72053;SDS011;59918;51.280;7.950;2022-11-18T12:26:00;5.18;;;4.47;;
72053;SDS011;59918;51.280;7.950;2022-11-18T12:28:47;4.65;;;3.90;;
72053;SDS011;59918;51.280;7.950;2022-11-18T12:33:44;3.25;;;2.95;;
72053;SDS011;59918;51.280;7.950;2022-11-18T12:36:23;4.20;;;2.90;;
72053;SDS011;59918;51.280;7.950;2022-11-18T12:38:49;4.13;;;2.67;;
72053;SDS011;59918;51.280;7.950;2022-11-18T12:44:04;7.10;;;3.97;;
72053;SDS011;59918;51.280;7.950;2022-11-18T12:51:53;11.55;;;4.40;;
72053;SDS011;59918;51.280;7.950;2022-11-18T12:56:53;6.20;;;4.30;;
72053;SDS011;59918;51.280;7.950;2022-11-18T13:04:39;22.10;;;6.53;;
72053;SDS011;59918;51.280;7.950;2022-11-18T13:07:04;22.80;;;7.32;;
72053;SDS011;59918;51.280;7.950;2022-11-18T13:09:37;9.38;;;5.03;;
72053;SDS011;59918;51.280;7.950;2022-11-18T13:12:17;7.20;;;4.72;;
72053;SDS011;59918;51.280;7.950;2022-11-18T13:14:43;8.68;;;5.00;;
72053;SDS011;59918;51.280;7.950;2022-11-18T13:19:54;10.82;;;4.88;;
72053;SDS011;59918;51.280;7.950;2022-11-18T13:22:21;23.45;;;6.55;;
72053;SDS011;59918;51.280;7.950;2022-11-18T13:24:48;22.05;;;7.15;;
72053;SDS011;59918;51.280;7.950;2022-11-18T13:27:18;11.10;;;4.60;;
72053;SDS011;59918;51.280;7.950;2022-11-18T13:29:51;9.35;;;4.60;;
72053;SDS011;59918;51.280;7.950;2022-11-18T13:32:21;7.00;;;5.25;;
72053;SDS011;59918;51.280;7.950;2022-11-18T13:34:48;7.65;;;4.70;;
72053;SDS011;59918;51.280;7.950;2022-11-18T13:37:24;8.85;;;5.30;;
72053;SDS011;59918;51.280;7.950;2022-11-18T13:39:51;6.75;;;4.63;;
72053;SDS011;59918;51.280;7.950;2022-11-18T13:44:52;5.45;;;3.88;;
72053;SDS011;59918;51.280;7.950;2022-11-18T13:50:05;8.77;;;3.20;;
72053;SDS011;59918;51.280;7.950;2022-11-18T13:55:26;3.95;;;3.55;;
72053;SDS011;59918;51.280;7.950;2022-11-18T13:57:57;8.40;;;2.90;;
72053;SDS011;59918;51.280;7.950;2022-11-18T14:00:27;6.75;;;3.10;;
72053;SDS011;59918;51.280;7.950;2022-11-18T14:02:55;4.88;;;3.20;;
72053;SDS011;59918;51.280;7.950;2022-11-18T14:05:23;7.38;;;2.90;;
72053;SDS011;59918;51.280;7.950;2022-11-18T14:07:59;5.32;;;3.47;;
72053;SDS011;59918;51.280;7.950;2022-11-18T14:10:29;10.10;;;4.30;;
72053;SDS011;59918;51.280;7.950;2022-11-18T14:12:56;6.40;;;3.45;;
72053;SDS011;59918;51.280;7.950;2022-11-18T14:17:57;6.87;;;3.90;;
72053;SDS011;59918;51.280;7.950;2022-11-18T14:20:25;7.88;;;2.90;;
72053;SDS011;59918;51.280;7.950;2022-11-18T14:22:53;5.80;;;2.78;;
72053;SDS011;59918;51.280;7.950;2022-11-18T14:30:41;5.65;;;4.10;;
72053;SDS011;59918;51.280;7.950;2022-11-18T14:33:35;5.75;;;4.82;;
72053;SDS011;59918;51.280;7.950;2022-11-18T14:36:09;9.63;;;3.78;;
72053;SDS011;59918;51.280;7.950;2022-11-18T14:38:45;5.57;;;4.00;;
72053;SDS011;59918;51.280;7.950;2022-11-18T14:41:14;5.38;;;4.05;;
72053;SDS011;59918;51.280;7.950;2022-11-18T14:43:42;10.18;;;6.22;;
72053;SDS011;59918;51.280;7.950;2022-11-18T14:46:17;11.48;;;8.85;;
72053;SDS011;59918;51.280;7.950;2022-11-18T14:48:45;7.10;;;5.30;;
72053;SDS011;59918;51.280;7.950;2022-11-18T14:51:11;12.32;;;4.47;;
72053;SDS011;59918;51.280;7.950;2022-11-18T14:53:40;9.32;;;5.57;;
72053;SDS011;59918;51.280;7.950;2022-11-18T14:56:10;10.70;;;5.00;;
72053;SDS011;59918;51.280;7.950;2022-11-18T14:58:38;10.02;;;5.95;;
72053;SDS011;59918;51.280;7.950;2022-11-18T15:01:03;15.70;;;10.02;;
72053;SDS011;59918;51.280;7.950;2022-11-18T15:03:31;10.55;;;5.05;;
72053;SDS011;59918;51.280;7.950;2022-11-18T15:05:56;10.15;;;4.95;;
72053;SDS011;59918;51.280;7.950;2022-11-18T15:08:21;12.45;;;5.97;;
72053;SDS011;59918;51.280;7.950;2022-11-18T15:10:47;15.77;;;7.78;;
72053;SDS011;59918;51.280;7.950;2022-11-18T15:13:12;15.10;;;8.75;;
72053;SDS011;59918;51.280;7.950;2022-11-18T15:15:37;10.77;;;5.60;;
72053;SDS011;59918;51.280;7.950;2022-11-18T15:18:05;17.33;;;10.25;;
72053;SDS011;59918;51.280;7.950;2022-11-18T15:20:30;69.65;;;42.13;;
72053;SDS011;59918;51.280;7.950;2022-11-18T15:22:55;10.48;;;7.90;;
72053;SDS011;59918;51.280;7.950;2022-11-18T15:25:23;24.40;;;10.57;;
72053;SDS011;59918;51.280;7.950;2022-11-18T15:27:48;32.35;;;14.13;;
72053;SDS011;59918;51.280;7.950;2022-11-18T15:30:14;57.47;;;26.58;;
72053;SDS011;59918;51.280;7.950;2022-11-18T15:32:39;59.58;;;20.33;;
72053;SDS011;59918;51.280;7.950;2022-11-18T15:35:04;49.00;;;16.67;;
72053;SDS011;59918;51.280;7.950;2022-11-18T15:37:30;26.85;;;11.23;;
72053;SDS011;59918;51.280;7.950;2022-11-18T15:39:55;22.42;;;9.18;;
72053;SDS011;59918;51.280;7.950;2022-11-18T15:42:20;16.85;;;8.95;;
72053;SDS011;59918;51.280;7.950;2022-11-18T15:44:48;21.80;;;10.70;;
72053;SDS011;59918;51.280;7.950;2022-11-18T15:47:13;17.20;;;9.18;;
72053;SDS011;59918;51.280;7.950;2022-11-18T15:49:38;14.32;;;8.65;;
72053;SDS011;59918;51.280;7.950;2022-11-18T15:52:03;14.02;;;7.43;;
72053;SDS011;59918;51.280;7.950;2022-11-18T15:54:29;23.50;;;11.60;;
72053;SDS011;59918;51.280;7.950;2022-11-18T15:56:54;21.25;;;10.93;;
72053;SDS011;59918;51.280;7.950;2022-11-18T15:59:19;20.83;;;11.35;;
72053;SDS011;59918;51.280;7.950;2022-11-18T16:01:47;25.33;;;14.68;;
72053;SDS011;59918;51.280;7.950;2022-11-18T16:04:15;19.42;;;11.27;;
72053;SDS011;59918;51.280;7.950;2022-11-18T16:06:41;17.20;;;8.88;;
72053;SDS011;59918;51.280;7.950;2022-11-18T16:09:07;14.55;;;8.63;;
72053;SDS011;59918;51.280;7.950;2022-11-18T16:11:33;11.93;;;8.50;;
72053;SDS011;59918;51.280;7.950;2022-11-18T16:14:02;13.55;;;8.48;;
72053;SDS011;59918;51.280;7.950;2022-11-18T16:16:31;15.65;;;8.13;;
72053;SDS011;59918;51.280;7.950;2022-11-18T16:19:01;15.68;;;7.53;;
72053;SDS011;59918;51.280;7.950;2022-11-18T16:21:30;12.27;;;7.60;;
72053;SDS011;59918;51.280;7.950;2022-11-18T16:23:58;19.35;;;8.35;;
72053;SDS011;59918;51.280;7.950;2022-11-18T16:26:25;22.63;;;9.02;;
72053;SDS011;59918;51.280;7.950;2022-11-18T16:28:51;18.17;;;8.82;;
72053;SDS011;59918;51.280;7.950;2022-11-18T16:31:16;16.73;;;9.20;;
72053;SDS011;59918;51.280;7.950;2022-11-18T16:33:42;26.92;;;11.80;;
72053;SDS011;59918;51.280;7.950;2022-11-18T16:36:07;15.40;;;8.82;;
72053;SDS011;59918;51.280;7.950;2022-11-18T16:38:32;23.92;;;10.27;;
72053;SDS011;59918;51.280;7.950;2022-11-18T16:40:58;17.05;;;9.32;;
72053;SDS011;59918;51.280;7.950;2022-11-18T16:43:24;19.52;;;9.32;;
72053;SDS011;59918;51.280;7.950;2022-11-18T16:45:50;13.43;;;8.48;;
72053;SDS011;59918;51.280;7.950;2022-11-18T16:48:15;21.48;;;9.88;;
72053;SDS011;59918;51.280;7.950;2022-11-18T16:50:41;21.58;;;10.13;;
72053;SDS011;59918;51.280;7.950;2022-11-18T16:53:06;20.00;;;10.30;;
72053;SDS011;59918;51.280;7.950;2022-11-18T16:55:33;15.52;;;9.25;;